Time;durP1;ratioP1;P1;durP2;ratioP2;P2;SDS_P1;SDS_P2;PMS_P1;PMS_P2;Temp;Humidity;BMP_temperature;BMP_pressure;BME280_temperature;BME280_humidity;BME280_pressure;Samples;Min_cycle;Max_cycle;Signal;HPM_P1;HPM_P2
2022/01/25 00:26:36;;;;;;;55.10;26.83;;;;;;;;;;5087482;28;20079;-72
2022/01/25 00:29:07;;;;;;;62.28;29.70;;;;;;;;;;5071435;28;20024;-72
2022/01/25 00:31:33;;;;;;;77.57;34.97;;;;;;;;;;5071667;28;20047;-71
2022/01/25 00:34:00;;;;;;;59.38;26.60;;;;;;;;;;5070894;28;20074;-72
2022/01/25 00:36:27;;;;;;;52.60;25.63;;;;;;;;;;5080621;28;20105;-71
2022/01/25 00:38:53;;;;;;;52.53;26.13;;;;;;;;;;5081549;28;20058;-71
2022/01/25 00:41:20;;;;;;;45.60;23.45;;;;;;;;;;5101746;28;20398;-71
2022/01/25 00:43:46;;;;;;;48.83;24.63;;;;;;;;;;5091706;28;20028;-71
2022/01/25 00:46:14;;;;;;;49.55;28.00;;;;;;;;;;5103097;28;20034;-71
2022/01/25 00:48:48;;;;;;;56.90;29.33;;;;;;;;;;5102097;28;20475;-71
2022/01/25 00:54:02;;;;;;;66.22;35.30;;;;;;;;;;5076074;28;20478;-71
2022/01/25 00:56:31;;;;;;;49.25;27.15;;;;;;;;;;5088282;28;20390;-71
2022/01/25 00:58:57;;;;;;;56.30;27.85;;;;;;;;;;5091645;28;20024;-71
2022/01/25 01:01:23;;;;;;;65.50;34.50;;;;;;;;;;5084170;28;20111;-71
2022/01/25 01:03:49;;;;;;;73.13;37.47;;;;;;;;;;5084837;28;20429;-71
2022/01/25 01:06:16;;;;;;;66.95;33.55;;;;;;;;;;5078729;28;20782;-71
2022/01/25 01:08:42;;;;;;;63.55;33.35;;;;;;;;;;5091521;28;20471;-72
2022/01/25 01:11:12;;;;;;;55.75;28.90;;;;;;;;;;5084150;28;20453;-71
2022/01/25 01:30:11;;;;;;;62.00;30.30;;;;;;;;;;5090652;28;20073;-71
2022/01/25 01:43:06;;;;;;;57.67;27.33;;;;;;;;;;5088209;28;20043;-71
2022/01/25 01:45:41;;;;;;;49.03;26.67;;;;;;;;;;5078907;28;20020;-71
2022/01/25 01:48:16;;;;;;;54.65;26.38;;;;;;;;;;5086840;28;20024;-71
2022/01/25 01:50:42;;;;;;;50.85;26.55;;;;;;;;;;5082289;28;20027;-71
2022/01/25 01:53:08;;;;;;;54.00;27.73;;;;;;;;;;5080321;28;20055;-71
2022/01/25 01:55:36;;;;;;;53.13;25.83;;;;;;;;;;5084517;28;20032;-71
2022/01/25 01:58:03;;;;;;;49.22;25.75;;;;;;;;;;5077474;28;20050;-71
2022/01/25 02:00:32;;;;;;;46.45;24.45;;;;;;;;;;5090219;28;20032;-71
2022/01/25 02:02:58;;;;;;;52.55;25.45;;;;;;;;;;5075167;28;20063;-71
2022/01/25 02:05:25;;;;;;;43.63;23.02;;;;;;;;;;5084416;28;20554;-71
2022/01/25 02:07:51;;;;;;;49.95;23.58;;;;;;;;;;5054686;28;20081;-71
2022/01/25 02:10:17;;;;;;;48.28;23.95;;;;;;;;;;5088702;28;20529;-71
2022/01/25 02:12:46;;;;;;;51.50;23.77;;;;;;;;;;5089374;28;20097;-71
2022/01/25 02:15:12;;;;;;;45.67;21.13;;;;;;;;;;5089647;28;20031;-71
2022/01/25 02:22:25;;;;;;;45.17;23.23;;;;;;;;;;5089032;28;20040;-71
2022/01/25 02:23:18;;;;;;;42.80;21.35;;;;;;;;;;5083332;28;20035;-71
2022/01/25 02:25:45;;;;;;;44.60;22.98;;;;;;;;;;5075354;28;20062;-71
2022/01/25 02:28:12;;;;;;;43.90;23.85;;;;;;;;;;5068841;28;20033;-71
2022/01/25 02:30:38;;;;;;;44.80;23.25;;;;;;;;;;5084817;28;20032;-71
2022/01/25 02:33:04;;;;;;;42.70;21.77;;;;;;;;;;5081160;28;20035;-71
2022/01/25 02:35:30;;;;;;;40.97;22.15;;;;;;;;;;5083750;28;20036;-71
2022/01/25 02:37:56;;;;;;;46.85;24.70;;;;;;;;;;5075867;28;20066;-71
2022/01/25 02:40:23;;;;;;;45.42;23.38;;;;;;;;;;5077344;28;20059;-71
2022/01/25 02:42:50;;;;;;;42.00;21.42;;;;;;;;;;5061333;28;20127;-72
2022/01/25 02:45:17;;;;;;;43.72;21.92;;;;;;;;;;5089045;28;20137;-71
2022/01/25 02:50:28;;;;;;;40.30;20.00;;;;;;;;;;5080744;28;20136;-72
2022/01/25 02:52:54;;;;;;;40.15;22.02;;;;;;;;;;5079576;28;20037;-71
2022/01/25 02:55:20;;;;;;;39.70;21.45;;;;;;;;;;5089376;28;20043;-71
2022/01/25 02:57:47;;;;;;;37.47;19.17;;;;;;;;;;5074516;28;20032;-71
2022/01/25 03:00:13;;;;;;;48.42;23.90;;;;;;;;;;5089296;28;20455;-71
2022/01/25 03:02:39;;;;;;;40.85;20.50;;;;;;;;;;5081433;28;20039;-71
2022/01/25 03:05:06;;;;;;;44.28;20.25;;;;;;;;;;5101940;28;20032;-71
2022/01/25 03:07:33;;;;;;;39.75;20.58;;;;;;;;;;5079539;28;20116;-71
2022/01/25 03:10:00;;;;;;;39.97;19.55;;;;;;;;;;5081302;28;20439;-71
2022/01/25 03:13:00;;;;;;;53.42;24.23;;;;;;;;;;5068668;28;20119;-71
2022/01/25 03:17:51;;;;;;;39.92;21.10;;;;;;;;;;5076175;28;20650;-71
2022/01/25 03:20:33;;;;;;;40.75;21.23;;;;;;;;;;5080955;28;20547;-71
2022/01/25 03:23:05;;;;;;;40.75;21.05;;;;;;;;;;5072682;28;20491;-71
2022/01/25 03:25:32;;;;;;;40.05;20.73;;;;;;;;;;5084120;28;20020;-72
2022/01/25 03:27:58;;;;;;;37.92;18.70;;;;;;;;;;5083601;28;20032;-71
2022/01/25 03:30:25;;;;;;;34.70;19.05;;;;;;;;;;5080353;28;20028;-71
2022/01/25 03:32:51;;;;;;;37.95;19.13;;;;;;;;;;5072939;28;20032;-70
2022/01/25 03:35:17;;;;;;;38.35;19.77;;;;;;;;;;5087739;28;20048;-71
2022/01/25 03:37:43;;;;;;;34.47;19.48;;;;;;;;;;5094492;28;20036;-71
2022/01/25 03:40:09;;;;;;;36.92;18.48;;;;;;;;;;5098166;28;20389;-71
2022/01/25 03:42:37;;;;;;;39.70;19.88;;;;;;;;;;5098901;28;20044;-71
2022/01/25 03:45:07;;;;;;;38.75;19.70;;;;;;;;;;5088496;28;20600;-71
2022/01/25 03:50:29;;;;;;;41.28;21.38;;;;;;;;;;5073661;28;20032;-71
2022/01/25 03:52:55;;;;;;;42.65;20.67;;;;;;;;;;5094673;28;20070;-71
2022/01/25 03:55:21;;;;;;;43.42;20.75;;;;;;;;;;5094168;28;20443;-71
2022/01/25 03:57:47;;;;;;;39.38;20.77;;;;;;;;;;5112374;28;20031;-71
2022/01/25 04:00:14;;;;;;;47.30;23.20;;;;;;;;;;5092137;28;20064;-71
2022/01/25 04:03:05;;;;;;;42.65;22.88;;;;;;;;;;5091719;28;20078;-72
2022/01/25 04:05:47;;;;;;;43.05;21.90;;;;;;;;;;5079681;28;20028;-71
2022/01/25 04:08:13;;;;;;;57.88;28.10;;;;;;;;;;5089584;28;20117;-71
2022/01/25 04:10:39;;;;;;;56.97;29.70;;;;;;;;;;5105063;28;20174;-71
2022/01/25 04:13:05;;;;;;;51.65;22.98;;;;;;;;;;5091900;28;20445;-71
2022/01/25 04:15:32;;;;;;;52.22;25.23;;;;;;;;;;5091743;28;20209;-71
2022/01/25 04:18:20;;;;;;;48.90;25.38;;;;;;;;;;5080541;28;20414;-71
2022/01/25 04:21:01;;;;;;;49.45;26.15;;;;;;;;;;5087017;28;20036;-71
2022/01/25 04:26:12;;;;;;;62.95;33.60;;;;;;;;;;5081736;28;20454;-71
2022/01/25 04:28:38;;;;;;;64.72;32.97;;;;;;;;;;5094201;28;20036;-71
2022/01/25 04:31:04;;;;;;;60.63;28.55;;;;;;;;;;5111922;28;20046;-71
2022/01/25 04:33:40;;;;;;;54.38;27.75;;;;;;;;;;5094747;28;20035;-71
2022/01/25 04:49:36;;;;;;;52.30;25.60;;;;;;;;;;5089117;28;20047;-71
2022/01/25 04:52:08;;;;;;;51.83;24.35;;;;;;;;;;5097080;28;20039;-71
2022/01/25 04:54:43;;;;;;;50.83;26.38;;;;;;;;;;5101303;28;20043;-71
2022/01/25 05:02:11;;;;;;;54.63;26.75;;;;;;;;;;5091118;28;20074;-71
2022/01/25 05:04:43;;;;;;;50.80;26.52;;;;;;;;;;5098629;28;20370;-71
2022/01/25 05:09:46;;;;;;;41.45;22.42;;;;;;;;;;5105192;28;20485;-71
2022/01/25 05:12:13;;;;;;;49.03;24.00;;;;;;;;;;5095065;28;20036;-71
2022/01/25 05:14:56;;;;;;;45.03;24.25;;;;;;;;;;5081933;28;20043;-71
2022/01/25 05:17:31;;;;;;;49.83;24.67;;;;;;;;;;5082626;28;20475;-71
2022/01/25 05:22:42;;;;;;;50.08;24.40;;;;;;;;;;5071351;28;20071;-71
2022/01/25 05:25:08;;;;;;;49.95;23.33;;;;;;;;;;5099174;28;20034;-71
2022/01/25 05:27:34;;;;;;;50.17;23.92;;;;;;;;;;5092201;28;20103;-71
2022/01/25 05:30:00;;;;;;;45.15;23.52;;;;;;;;;;5090735;28;20028;-71
2022/01/25 05:32:27;;;;;;;52.60;24.67;;;;;;;;;;5072212;28;20123;-71
2022/01/25 05:34:54;;;;;;;50.05;25.25;;;;;;;;;;5090288;28;20073;-71
2022/01/25 05:37:20;;;;;;;56.03;26.33;;;;;;;;;;5088851;28;20072;-72
2022/01/25 05:39:47;;;;;;;54.00;28.45;;;;;;;;;;5072403;28;20051;-71
2022/01/25 05:45:12;;;;;;;55.22;26.55;;;;;;;;;;5090784;28;20058;-71
2022/01/25 05:47:40;;;;;;;53.83;25.75;;;;;;;;;;5090946;28;20550;-71
2022/01/25 05:50:06;;;;;;;51.40;24.08;;;;;;;;;;5096304;28;20032;-71
2022/01/25 05:52:32;;;;;;;55.38;25.73;;;;;;;;;;5086491;28;20032;-71
2022/01/25 05:54:59;;;;;;;54.10;26.20;;;;;;;;;;5083907;28;20032;-71
2022/01/25 05:57:26;;;;;;;62.88;31.25;;;;;;;;;;5072402;28;20040;-71
2022/01/25 05:59:53;;;;;;;59.85;31.73;;;;;;;;;;5091633;28;20122;-71
2022/01/25 06:02:21;;;;;;;54.85;29.83;;;;;;;;;;5108344;28;20115;-71
2022/01/25 06:04:47;;;;;;;53.33;27.30;;;;;;;;;;5091586;28;20024;-71
2022/01/25 06:07:13;;;;;;;54.78;27.20;;;;;;;;;;5096313;28;20070;-71
2022/01/25 06:09:40;;;;;;;57.13;28.77;;;;;;;;;;5097438;28;20046;-71
2022/01/25 06:12:07;;;;;;;59.58;29.85;;;;;;;;;;5088682;28;20477;-72
2022/01/25 06:14:33;;;;;;;57.45;28.70;;;;;;;;;;5084686;28;20154;-71
2022/01/25 06:16:59;;;;;;;59.17;30.90;;;;;;;;;;5088613;28;20458;-71
2022/01/25 06:19:25;;;;;;;58.13;29.80;;;;;;;;;;5086779;28;20031;-71
2022/01/25 06:21:51;;;;;;;66.38;35.72;;;;;;;;;;5084312;28;20036;-71
2022/01/25 06:24:17;;;;;;;65.50;32.38;;;;;;;;;;5089229;28;20499;-71
2022/01/25 06:26:43;;;;;;;55.38;28.58;;;;;;;;;;5088316;28;20036;-72
2022/01/25 06:29:11;;;;;;;65.13;34.20;;;;;;;;;;5088302;28;20031;-71
2022/01/25 06:31:37;;;;;;;61.25;31.23;;;;;;;;;;5087270;28;20112;-72
2022/01/25 06:34:03;;;;;;;67.93;32.28;;;;;;;;;;5090855;28;20110;-73
2022/01/25 06:36:33;;;;;;;66.55;32.35;;;;;;;;;;5088243;28;20035;-73
2022/01/25 06:38:59;;;;;;;68.32;33.40;;;;;;;;;;5070098;28;20070;-73
2022/01/25 06:41:25;;;;;;;70.28;34.67;;;;;;;;;;5087036;28;20057;-74
2022/01/25 06:43:51;;;;;;;74.22;36.45;;;;;;;;;;5088696;28;20071;-74
2022/01/25 06:46:17;;;;;;;73.53;36.05;;;;;;;;;;5085453;28;20064;-71
2022/01/25 06:48:43;;;;;;;78.85;37.45;;;;;;;;;;5083991;28;20040;-71
2022/01/25 06:51:09;;;;;;;83.13;38.90;;;;;;;;;;5080640;28;20032;-71
2022/01/25 06:53:36;;;;;;;91.13;42.20;;;;;;;;;;5089296;28;20043;-71
2022/01/25 06:56:04;;;;;;;129.35;60.67;;;;;;;;;;5088849;28;20036;-73
2022/01/25 06:58:30;;;;;;;130.38;59.40;;;;;;;;;;5089038;28;20035;-72
2022/01/25 07:00:56;;;;;;;132.07;62.20;;;;;;;;;;5088295;28;20044;-72
2022/01/25 07:03:22;;;;;;;108.40;51.55;;;;;;;;;;5088935;28;20479;-72
2022/01/25 07:05:48;;;;;;;103.95;49.03;;;;;;;;;;5089216;28;20060;-72
2022/01/25 07:08:14;;;;;;;114.78;54.65;;;;;;;;;;5089375;28;20067;-72
2022/01/25 07:10:40;;;;;;;106.68;52.72;;;;;;;;;;5099048;28;20035;-72
2022/01/25 07:13:06;;;;;;;120.90;57.83;;;;;;;;;;5093268;28;20039;-72
2022/01/25 07:15:32;;;;;;;99.90;47.30;;;;;;;;;;5089740;28;20032;-72
2022/01/25 07:17:58;;;;;;;102.63;46.67;;;;;;;;;;5088526;28;20111;-72
2022/01/25 07:20:24;;;;;;;102.43;47.08;;;;;;;;;;5088999;28;20115;-72
2022/01/25 07:22:51;;;;;;;95.47;46.15;;;;;;;;;;5074636;28;20107;-72
2022/01/25 07:25:17;;;;;;;96.35;42.80;;;;;;;;;;5088766;28;20024;-72
2022/01/25 07:27:43;;;;;;;87.28;41.05;;;;;;;;;;5083393;28;20032;-72
2022/01/25 07:30:09;;;;;;;92.75;44.85;;;;;;;;;;5080969;28;20115;-72
2022/01/25 07:32:35;;;;;;;92.10;42.65;;;;;;;;;;5087454;28;20040;-72
2022/01/25 07:35:01;;;;;;;90.72;43.70;;;;;;;;;;5087603;28;20032;-72
2022/01/25 07:37:27;;;;;;;80.32;39.67;;;;;;;;;;5088187;28;20483;-72
2022/01/25 07:39:55;;;;;;;81.80;41.50;;;;;;;;;;5088953;28;20363;-72
2022/01/25 07:42:23;;;;;;;75.03;38.10;;;;;;;;;;5087927;28;20044;-72
2022/01/25 07:44:49;;;;;;;72.82;38.53;;;;;;;;;;5088630;28;20051;-72
2022/01/25 07:47:15;;;;;;;68.20;33.05;;;;;;;;;;5086185;28;20108;-72
2022/01/25 07:49:41;;;;;;;70.82;34.58;;;;;;;;;;5088635;28;20048;-72
2022/01/25 07:52:07;;;;;;;62.88;34.40;;;;;;;;;;5076842;28;20480;-72
2022/01/25 07:54:34;;;;;;;74.68;35.35;;;;;;;;;;5080007;28;20086;-72
2022/01/25 07:57:00;;;;;;;92.75;35.22;;;;;;;;;;5080021;28;20064;-73
2022/01/25 07:59:26;;;;;;;70.80;33.25;;;;;;;;;;5087837;28;20044;-72
2022/01/25 08:01:52;;;;;;;69.30;33.40;;;;;;;;;;5087422;28;20043;-73
2022/01/25 08:04:18;;;;;;;72.72;35.30;;;;;;;;;;5087210;28;20993;-72
2022/01/25 08:06:44;;;;;;;69.97;37.35;;;;;;;;;;5088629;28;20028;-72
2022/01/25 08:09:10;;;;;;;81.68;37.17;;;;;;;;;;5079213;28;20035;-73
2022/01/25 08:11:37;;;;;;;73.85;35.63;;;;;;;;;;5069078;28;20040;-73
2022/01/25 08:14:16;;;;;;;70.53;36.75;;;;;;;;;;5081333;28;20787;-73
2022/01/25 08:16:44;;;;;;;78.82;35.03;;;;;;;;;;5089213;28;20789;-73
2022/01/25 08:19:10;;;;;;;77.53;36.78;;;;;;;;;;5076274;28;20479;-73
2022/01/25 08:21:36;;;;;;;85.03;38.95;;;;;;;;;;5097573;28;20424;-73
2022/01/25 08:24:03;;;;;;;76.80;37.92;;;;;;;;;;5096340;28;20111;-72
2022/01/25 08:26:29;;;;;;;73.85;36.92;;;;;;;;;;5096497;28;20024;-72
2022/01/25 08:28:55;;;;;;;82.95;38.58;;;;;;;;;;5090591;28;20077;-73
2022/01/25 08:31:21;;;;;;;83.50;40.78;;;;;;;;;;5088054;28;20497;-72
2022/01/25 08:33:48;;;;;;;88.35;40.13;;;;;;;;;;5083939;28;20060;-73
2022/01/25 08:36:14;;;;;;;90.55;44.10;;;;;;;;;;5088632;28;20032;-73
2022/01/25 08:38:40;;;;;;;86.75;44.13;;;;;;;;;;5088596;28;20056;-72
2022/01/25 08:41:06;;;;;;;93.80;46.72;;;;;;;;;;5073428;28;20070;-73
2022/01/25 08:43:35;;;;;;;86.97;42.88;;;;;;;;;;5085208;28;20046;-73
2022/01/25 08:46:03;;;;;;;89.57;43.88;;;;;;;;;;5091140;28;20036;-73
2022/01/25 08:48:29;;;;;;;83.47;41.92;;;;;;;;;;5091938;28;20745;-72
2022/01/25 08:50:55;;;;;;;81.70;42.08;;;;;;;;;;5084408;28;20589;-72
2022/01/25 08:53:21;;;;;;;84.10;42.00;;;;;;;;;;5087693;28;20115;-72
2022/01/25 08:55:47;;;;;;;69.93;35.47;;;;;;;;;;5082906;28;20098;-72
2022/01/25 08:58:13;;;;;;;78.60;38.63;;;;;;;;;;5091362;28;20035;-72
2022/01/25 09:00:39;;;;;;;76.13;40.30;;;;;;;;;;5085348;28;20044;-73
2022/01/25 09:03:05;;;;;;;78.47;40.03;;;;;;;;;;5090149;28;20048;-72
2022/01/25 09:05:32;;;;;;;79.38;39.55;;;;;;;;;;5086906;28;20028;-72
2022/01/25 09:07:59;;;;;;;79.05;41.50;;;;;;;;;;5090709;28;20032;-72
2022/01/25 09:10:25;;;;;;;73.97;41.53;;;;;;;;;;5091344;28;20097;-72
2022/01/25 09:12:51;;;;;;;83.30;42.08;;;;;;;;;;5092033;28;20038;-72
2022/01/25 09:15:17;;;;;;;75.57;39.42;;;;;;;;;;5095259;28;20111;-72
2022/01/25 09:17:43;;;;;;;67.38;38.78;;;;;;;;;;5078598;28;20036;-72
2022/01/25 09:20:10;;;;;;;75.90;40.13;;;;;;;;;;5090529;28;20082;-72
2022/01/25 09:22:36;;;;;;;72.80;38.35;;;;;;;;;;5091517;28;20051;-72
2022/01/25 09:25:02;;;;;;;73.80;37.45;;;;;;;;;;5090720;28;20032;-73
2022/01/25 09:27:28;;;;;;;73.82;39.45;;;;;;;;;;5090102;28;20074;-72
2022/01/25 09:29:54;;;;;;;75.50;40.95;;;;;;;;;;5077142;28;20075;-72
2022/01/25 09:32:20;;;;;;;68.35;40.17;;;;;;;;;;5090302;28;20038;-72
2022/01/25 09:34:47;;;;;;;81.15;41.83;;;;;;;;;;5090912;28;20028;-72
2022/01/25 09:37:13;;;;;;;77.82;39.75;;;;;;;;;;5089277;28;20036;-73
2022/01/25 09:39:39;;;;;;;71.05;40.33;;;;;;;;;;5085053;28;20486;-73
2022/01/25 09:42:08;;;;;;;75.63;40.33;;;;;;;;;;5088532;28;20032;-73
2022/01/25 09:44:36;;;;;;;66.60;36.47;;;;;;;;;;5087884;28;20074;-72
2022/01/25 09:47:02;;;;;;;65.65;37.05;;;;;;;;;;5078381;28;20062;-72
2022/01/25 09:49:28;;;;;;;67.32;39.10;;;;;;;;;;5102635;28;20028;-72
2022/01/25 09:51:56;;;;;;;72.60;40.20;;;;;;;;;;5090157;28;20042;-73
2022/01/25 09:54:22;;;;;;;77.85;42.63;;;;;;;;;;5088468;28;20028;-72
2022/01/25 09:56:48;;;;;;;71.72;40.20;;;;;;;;;;5090324;28;20043;-73
2022/01/25 09:59:15;;;;;;;68.35;39.53;;;;;;;;;;5089463;28;20028;-73
2022/01/25 10:01:41;;;;;;;66.53;36.88;;;;;;;;;;5087192;28;20032;-72
2022/01/25 10:04:26;;;;;;;63.75;33.33;;;;;;;;;;5089488;28;20382;-72
2022/01/25 10:06:52;;;;;;;64.97;36.63;;;;;;;;;;5084457;28;20070;-72
2022/01/25 10:09:19;;;;;;;61.42;35.28;;;;;;;;;;5089904;28;20880;-72
2022/01/25 10:11:46;;;;;;;68.50;37.70;;;;;;;;;;5088837;28;20115;-73
2022/01/25 10:14:12;;;;;;;68.60;37.45;;;;;;;;;;5087023;28;20082;-73
2022/01/25 10:16:38;;;;;;;70.75;39.38;;;;;;;;;;5081747;28;20036;-73
2022/01/25 10:19:05;;;;;;;72.82;39.22;;;;;;;;;;5087241;28;20070;-73
2022/01/25 10:21:36;;;;;;;64.15;37.45;;;;;;;;;;5076230;28;20036;-73
2022/01/25 10:24:02;;;;;;;61.17;34.60;;;;;;;;;;5077818;28;20025;-73
2022/01/25 10:26:36;;;;;;;70.75;40.13;;;;;;;;;;5089020;28;20028;-73
2022/01/25 10:29:02;;;;;;;61.22;34.40;;;;;;;;;;5089053;28;20046;-73
2022/01/25 10:31:57;;;;;;;61.72;35.83;;;;;;;;;;5086941;28;20035;-73
2022/01/25 10:34:25;;;;;;;58.78;32.42;;;;;;;;;;5062489;28;20114;-73
2022/01/25 10:36:52;;;;;;;53.25;31.15;;;;;;;;;;5088022;28;20100;-72
2022/01/25 10:39:39;;;;;;;54.97;32.38;;;;;;;;;;5093347;28;20044;-72
2022/01/25 10:42:08;;;;;;;46.10;26.50;;;;;;;;;;5085390;28;20041;-72
2022/01/25 10:44:53;;;;;;;46.30;25.50;;;;;;;;;;5085667;28;20026;-73
2022/01/25 10:47:21;;;;;;;51.47;25.35;;;;;;;;;;5085317;28;20039;-73
2022/01/25 10:49:49;;;;;;;48.55;26.70;;;;;;;;;;5089536;28;20701;-72
2022/01/25 10:52:23;;;;;;;50.35;28.45;;;;;;;;;;5081087;28;20467;-73
2022/01/25 10:54:49;;;;;;;44.97;25.63;;;;;;;;;;5080067;28;20039;-73
2022/01/25 10:57:19;;;;;;;42.47;22.50;;;;;;;;;;5088202;28;20036;-72
2022/01/25 10:59:56;;;;;;;42.03;23.65;;;;;;;;;;5087617;28;20032;-73
2022/01/25 11:02:22;;;;;;;36.30;22.10;;;;;;;;;;5082481;28;20032;-73
2022/01/25 11:04:48;;;;;;;39.30;22.00;;;;;;;;;;5089065;28;20035;-72
2022/01/25 11:07:14;;;;;;;33.20;20.67;;;;;;;;;;5087744;28;20028;-73
2022/01/25 11:09:46;;;;;;;36.78;20.65;;;;;;;;;;5087429;28;20020;-73
2022/01/25 11:12:15;;;;;;;43.33;24.98;;;;;;;;;;5080216;28;20047;-72
2022/01/25 11:14:54;;;;;;;42.15;25.88;;;;;;;;;;5076889;28;20201;-73
2022/01/25 11:17:30;;;;;;;49.22;27.27;;;;;;;;;;5088005;28;20081;-73
2022/01/25 11:19:56;;;;;;;48.40;28.70;;;;;;;;;;5086748;28;20588;-73
2022/01/25 11:22:23;;;;;;;47.05;28.50;;;;;;;;;;5088430;28;20405;-72
2022/01/25 11:24:52;;;;;;;54.58;30.38;;;;;;;;;;5086254;28;20838;-73
2022/01/25 11:27:19;;;;;;;47.13;28.63;;;;;;;;;;5088358;28;20132;-73
2022/01/25 11:29:45;;;;;;;50.08;27.95;;;;;;;;;;5084447;28;20077;-73
2022/01/25 11:32:13;;;;;;;43.75;25.00;;;;;;;;;;5077373;28;20501;-73
2022/01/25 11:34:40;;;;;;;38.13;24.00;;;;;;;;;;5087140;28;20091;-73
2022/01/25 11:37:07;;;;;;;42.63;25.42;;;;;;;;;;5088613;28;20036;-73
2022/01/25 11:39:34;;;;;;;40.28;25.42;;;;;;;;;;5079934;28;20050;-72
2022/01/25 11:42:02;;;;;;;43.92;27.13;;;;;;;;;;5085005;28;20040;-72
2022/01/25 11:44:29;;;;;;;47.47;26.95;;;;;;;;;;5085642;28;20027;-74
2022/01/25 11:46:57;;;;;;;44.58;25.70;;;;;;;;;;5102808;28;20033;-73
2022/01/25 11:49:23;;;;;;;41.30;24.40;;;;;;;;;;5087416;28;20095;-73
2022/01/25 11:52:15;;;;;;;37.38;21.98;;;;;;;;;;5089198;28;20040;-73
2022/01/25 11:54:43;;;;;;;37.38;22.67;;;;;;;;;;5080876;28;20044;-73
2022/01/25 11:57:16;;;;;;;40.95;22.05;;;;;;;;;;5088121;28;20368;-73
2022/01/25 11:59:43;;;;;;;40.25;24.45;;;;;;;;;;5087764;28;20359;-73
2022/01/25 12:02:09;;;;;;;34.33;21.58;;;;;;;;;;5088256;28;20032;-73
2022/01/25 12:04:35;;;;;;;42.83;23.70;;;;;;;;;;5087215;28;20027;-73
2022/01/25 12:07:12;;;;;;;39.47;24.75;;;;;;;;;;5082288;28;20036;-73
2022/01/25 12:09:45;;;;;;;40.47;24.63;;;;;;;;;;5079062;28;20521;-73
2022/01/25 12:12:12;;;;;;;39.10;23.60;;;;;;;;;;5082792;28;20035;-73
2022/01/25 12:14:42;;;;;;;39.95;22.63;;;;;;;;;;5071372;28;20103;-72
2022/01/25 12:17:13;;;;;;;34.35;22.38;;;;;;;;;;5092100;28;20036;-73
2022/01/25 12:19:51;;;;;;;36.78;21.67;;;;;;;;;;5091327;28;20382;-73
2022/01/25 12:25:13;;;;;;;41.20;22.90;;;;;;;;;;5088966;28;20034;-72
2022/01/25 12:27:51;;;;;;;33.55;21.15;;;;;;;;;;5088557;28;20043;-73
2022/01/25 12:30:30;;;;;;;38.88;23.65;;;;;;;;;;5096781;28;20474;-73
2022/01/25 12:33:00;;;;;;;38.38;23.80;;;;;;;;;;5089883;28;20040;-73
2022/01/25 12:35:43;;;;;;;42.03;25.45;;;;;;;;;;5082776;28;20508;-73
2022/01/25 12:38:09;;;;;;;40.47;24.30;;;;;;;;;;5080367;28;20032;-73
2022/01/25 12:40:36;;;;;;;39.72;24.02;;;;;;;;;;5093903;28;20110;-73
2022/01/25 12:43:04;;;;;;;44.78;25.70;;;;;;;;;;5079863;28;20028;-73
2022/01/25 12:45:32;;;;;;;45.00;26.77;;;;;;;;;;5086725;28;20070;-73
2022/01/25 12:48:00;;;;;;;45.83;26.05;;;;;;;;;;5089841;28;20035;-73
2022/01/25 12:50:27;;;;;;;40.00;23.25;;;;;;;;;;5090532;28;20051;-72
2022/01/25 12:52:53;;;;;;;45.75;23.80;;;;;;;;;;5084358;28;20032;-73
2022/01/25 12:55:24;;;;;;;37.47;22.73;;;;;;;;;;5075518;28;20039;-73
2022/01/25 12:57:51;;;;;;;35.67;21.50;;;;;;;;;;5090522;28;20032;-73
2022/01/25 13:00:17;;;;;;;38.40;21.75;;;;;;;;;;5081737;28;20036;-73
2022/01/25 13:02:44;;;;;;;40.83;24.05;;;;;;;;;;5087380;28;20028;-73
2022/01/25 13:05:17;;;;;;;42.25;26.25;;;;;;;;;;5084235;28;20047;-72
2022/01/25 13:07:43;;;;;;;41.70;25.95;;;;;;;;;;5089794;28;20039;-73
2022/01/25 13:10:12;;;;;;;45.25;26.25;;;;;;;;;;5087338;28;20871;-72
2022/01/25 13:12:55;;;;;;;47.08;26.17;;;;;;;;;;5089419;28;20127;-72
2022/01/25 13:18:14;;;;;;;38.72;23.50;;;;;;;;;;5087315;28;20152;-72
2022/01/25 13:20:41;;;;;;;45.30;23.13;;;;;;;;;;5087899;28;20079;-73
2022/01/25 13:23:08;;;;;;;42.03;23.77;;;;;;;;;;5091040;28;20444;-73
2022/01/25 13:25:54;;;;;;;33.40;20.40;;;;;;;;;;5083326;28;20024;-73
2022/01/25 13:31:00;;;;;;;29.27;16.80;;;;;;;;;;5089284;28;20154;-73
2022/01/25 13:33:28;;;;;;;26.48;15.25;;;;;;;;;;5086576;28;20040;-72
2022/01/25 13:35:56;;;;;;;23.77;13.50;;;;;;;;;;5086828;28;20046;-73
2022/01/25 13:38:26;;;;;;;25.30;14.52;;;;;;;;;;5089224;28;20054;-73
2022/01/25 13:41:01;;;;;;;27.67;15.23;;;;;;;;;;5085893;28;20032;-73
2022/01/25 13:46:04;;;;;;;26.35;14.85;;;;;;;;;;5090535;28;20035;-72
2022/01/25 13:48:31;;;;;;;25.02;13.73;;;;;;;;;;5089476;28;20032;-73
2022/01/25 13:50:58;;;;;;;25.95;14.88;;;;;;;;;;5090615;28;20032;-73
2022/01/25 13:53:25;;;;;;;23.95;12.52;;;;;;;;;;5071440;28;20070;-72
2022/01/25 13:55:52;;;;;;;22.27;12.57;;;;;;;;;;5085299;28;20035;-72
2022/01/25 13:58:26;;;;;;;25.83;13.85;;;;;;;;;;5089018;28;20119;-73
2022/01/25 14:00:52;;;;;;;16.85;9.60;;;;;;;;;;5088232;28;20538;-72
2022/01/25 14:03:23;;;;;;;16.63;9.18;;;;;;;;;;5088278;28;20036;-73
2022/01/25 14:05:49;;;;;;;20.08;9.38;;;;;;;;;;5090619;28;20056;-73
2022/01/25 14:08:15;;;;;;;18.13;10.57;;;;;;;;;;5095562;28;20054;-72
2022/01/25 14:10:45;;;;;;;18.23;10.60;;;;;;;;;;5090227;28;20467;-72
2022/01/25 14:24:06;;;;;;;18.55;10.80;;;;;;;;;;5089222;28;20108;-72
2022/01/25 14:26:32;;;;;;;19.52;10.95;;;;;;;;;;5082831;28;20564;-73
2022/01/25 14:29:13;;;;;;;23.90;13.00;;;;;;;;;;5074947;28;20046;-72
2022/01/25 14:31:42;;;;;;;21.83;13.20;;;;;;;;;;5074165;28;20447;-73
2022/01/25 14:34:10;;;;;;;21.00;11.15;;;;;;;;;;5088361;28;20024;-73
2022/01/25 14:36:39;;;;;;;22.92;11.75;;;;;;;;;;5070947;28;20680;-73
2022/01/25 14:39:05;;;;;;;22.92;12.30;;;;;;;;;;5083684;28;20086;-72
2022/01/25 14:41:32;;;;;;;24.23;12.98;;;;;;;;;;5089553;28;20583;-72
2022/01/25 14:44:04;;;;;;;23.98;13.45;;;;;;;;;;5088599;28;20107;-73
2022/01/25 14:46:31;;;;;;;29.77;14.65;;;;;;;;;;5089645;28;20454;-73
2022/01/25 14:49:11;;;;;;;26.92;14.85;;;;;;;;;;5084584;28;20394;-72
2022/01/25 14:51:38;;;;;;;26.38;13.05;;;;;;;;;;5072972;28;20070;-73
2022/01/25 14:54:06;;;;;;;21.08;10.40;;;;;;;;;;5077091;28;20033;-72
2022/01/25 14:56:34;;;;;;;16.83;8.80;;;;;;;;;;5072621;28;20032;-72
2022/01/25 15:01:33;;;;;;;25.45;10.88;;;;;;;;;;5089615;28;20689;-72
2022/01/25 15:03:59;;;;;;;23.90;10.35;;;;;;;;;;5087407;28;20046;-73
2022/01/25 15:06:25;;;;;;;28.20;11.57;;;;;;;;;;5088278;28;20020;-72
2022/01/25 15:08:55;;;;;;;22.73;12.88;;;;;;;;;;5083258;28;20086;-73
2022/01/25 15:11:23;;;;;;;29.83;17.33;;;;;;;;;;5082046;28;20055;-73
2022/01/25 15:13:57;;;;;;;35.22;18.88;;;;;;;;;;5085968;28;20036;-73
2022/01/25 15:16:23;;;;;;;29.33;16.70;;;;;;;;;;5079511;28;20020;-72
2022/01/25 15:18:50;;;;;;;35.42;18.45;;;;;;;;;;5089236;28;20093;-73
2022/01/25 15:21:16;;;;;;;34.95;18.65;;;;;;;;;;5088432;28;20107;-73
2022/01/25 15:23:46;;;;;;;33.30;17.58;;;;;;;;;;5084568;28;20028;-73
2022/01/25 15:26:16;;;;;;;29.05;15.80;;;;;;;;;;5088260;28;20047;-72
2022/01/25 15:28:44;;;;;;;25.00;13.55;;;;;;;;;;5088487;28;20066;-72
2022/01/25 15:31:15;;;;;;;27.08;13.23;;;;;;;;;;5080074;28;20136;-72
2022/01/25 15:33:42;;;;;;;32.50;16.33;;;;;;;;;;5076184;28;20070;-73
2022/01/25 15:36:09;;;;;;;29.23;17.42;;;;;;;;;;5088786;28;20512;-72
2022/01/25 15:38:36;;;;;;;26.67;14.38;;;;;;;;;;5087386;28;20055;-72
2022/01/25 15:41:08;;;;;;;27.50;13.80;;;;;;;;;;5088902;28;20055;-72
2022/01/25 15:43:40;;;;;;;24.40;14.25;;;;;;;;;;5087516;28;20030;-72
2022/01/25 15:46:07;;;;;;;38.40;23.02;;;;;;;;;;5088250;28;20028;-73
2022/01/25 15:48:35;;;;;;;49.22;35.20;;;;;;;;;;5090850;28;20029;-72
2022/01/25 15:51:01;;;;;;;39.95;28.50;;;;;;;;;;5092571;28;20032;-72
2022/01/25 15:53:27;;;;;;;41.08;28.15;;;;;;;;;;5087443;28;20122;-73
2022/01/25 15:55:53;;;;;;;41.42;22.92;;;;;;;;;;5088661;28;20077;-72
2022/01/25 15:58:20;;;;;;;38.45;23.35;;;;;;;;;;5091721;28;20028;-73
2022/01/25 16:00:49;;;;;;;35.50;23.42;;;;;;;;;;5090203;28;20032;-72
2022/01/25 16:03:16;;;;;;;37.33;22.58;;;;;;;;;;5088680;28;20422;-72
2022/01/25 16:05:42;;;;;;;52.38;35.10;;;;;;;;;;5089930;28;20352;-72
2022/01/25 16:08:08;;;;;;;49.53;35.38;;;;;;;;;;5088920;28;20034;-72
2022/01/25 16:10:35;;;;;;;54.33;36.67;;;;;;;;;;5090027;28;20043;-72
2022/01/25 16:13:01;;;;;;;57.33;37.40;;;;;;;;;;5082521;28;20613;-72
2022/01/25 16:15:27;;;;;;;66.82;41.63;;;;;;;;;;5095953;28;20032;-72
2022/01/25 16:17:53;;;;;;;50.30;33.97;;;;;;;;;;5090560;28;20063;-72
2022/01/25 16:20:19;;;;;;;52.00;30.10;;;;;;;;;;5092968;28;20032;-72
2022/01/25 16:22:45;;;;;;;50.22;30.77;;;;;;;;;;5087229;28;20032;-72